sensor_id;sensor_type;location;lat;lon;timestamp;temperature;humidity
45715;DHT22;31430;61.646;24.704;2023-04-24T00:01:47;7.50;99.90
45715;DHT22;31430;61.646;24.704;2023-04-24T00:04:13;7.50;99.90
45715;DHT22;31430;61.646;24.704;2023-04-24T00:20:36;7.40;99.90
45715;DHT22;31430;61.646;24.704;2023-04-24T00:23:02;7.40;99.90
45715;DHT22;31430;61.646;24.704;2023-04-24T00:25:28;7.40;99.90
45715;DHT22;31430;61.646;24.704;2023-04-24T00:27:53;7.40;99.90
45715;DHT22;31430;61.646;24.704;2023-04-24T00:30:19;7.40;99.90
45715;DHT22;31430;61.646;24.704;2023-04-24T00:32:45;7.50;99.90
45715;DHT22;31430;61.646;24.704;2023-04-24T00:35:10;7.50;99.90
45715;DHT22;31430;61.646;24.704;2023-04-24T00:37:36;7.60;99.90
45715;DHT22;31430;61.646;24.704;2023-04-24T00:40:02;7.70;99.90
45715;DHT22;31430;61.646;24.704;2023-04-24T00:42:28;7.70;99.90
45715;DHT22;31430;61.646;24.704;2023-04-24T00:44:54;7.80;99.90
45715;DHT22;31430;61.646;24.704;2023-04-24T00:47:20;7.80;99.90
45715;DHT22;31430;61.646;24.704;2023-04-24T00:49:47;7.80;99.90
45715;DHT22;31430;61.646;24.704;2023-04-24T00:52:13;7.90;99.90
45715;DHT22;31430;61.646;24.704;2023-04-24T00:54:43;7.80;99.90
45715;DHT22;31430;61.646;24.704;2023-04-24T00:57:10;7.90;99.90
45715;DHT22;31430;61.646;24.704;2023-04-24T00:59:36;7.90;99.70
45715;DHT22;31430;61.646;24.704;2023-04-24T01:02:02;7.90;99.60
45715;DHT22;31430;61.646;24.704;2023-04-24T01:04:28;7.90;99.80
45715;DHT22;31430;61.646;24.704;2023-04-24T01:06:55;7.90;99.50
45715;DHT22;31430;61.646;24.704;2023-04-24T01:09:23;7.90;99.60
45715;DHT22;31430;61.646;24.704;2023-04-24T01:11:49;8.00;99.60
45715;DHT22;31430;61.646;24.704;2023-04-24T01:14:15;8.10;99.00
45715;DHT22;31430;61.646;24.704;2023-04-24T01:16:40;8.10;98.50
45715;DHT22;31430;61.646;24.704;2023-04-24T01:19:07;8.10;98.40
45715;DHT22;31430;61.646;24.704;2023-04-24T01:21:36;8.20;98.10
45715;DHT22;31430;61.646;24.704;2023-04-24T01:24:06;8.20;98.00
45715;DHT22;31430;61.646;24.704;2023-04-24T01:26:32;8.30;97.00
45715;DHT22;31430;61.646;24.704;2023-04-24T01:28:58;8.30;96.50
45715;DHT22;31430;61.646;24.704;2023-04-24T01:31:24;8.40;96.20
45715;DHT22;31430;61.646;24.704;2023-04-24T01:33:51;8.30;97.00
45715;DHT22;31430;61.646;24.704;2023-04-24T01:36:17;8.30;96.70
45715;DHT22;31430;61.646;24.704;2023-04-24T01:38:44;8.30;96.30
45715;DHT22;31430;61.646;24.704;2023-04-24T01:41:10;8.40;96.80
45715;DHT22;31430;61.646;24.704;2023-04-24T01:43:36;8.40;97.10
45715;DHT22;31430;61.646;24.704;2023-04-24T01:46:01;8.30;97.00
45715;DHT22;31430;61.646;24.704;2023-04-24T01:48:27;8.30;97.00
45715;DHT22;31430;61.646;24.704;2023-04-24T01:50:53;8.40;97.00
45715;DHT22;31430;61.646;24.704;2023-04-24T01:53:19;8.30;97.40
45715;DHT22;31430;61.646;24.704;2023-04-24T01:55:45;8.30;97.20
45715;DHT22;31430;61.646;24.704;2023-04-24T01:58:10;8.40;96.70
45715;DHT22;31430;61.646;24.704;2023-04-24T02:00:36;8.30;97.00
45715;DHT22;31430;61.646;24.704;2023-04-24T02:03:02;8.40;96.70
45715;DHT22;31430;61.646;24.704;2023-04-24T02:05:28;8.40;96.70
45715;DHT22;31430;61.646;24.704;2023-04-24T02:07:53;8.40;97.20
45715;DHT22;31430;61.646;24.704;2023-04-24T02:10:19;8.40;96.70
45715;DHT22;31430;61.646;24.704;2023-04-24T02:12:45;8.40;96.90
45715;DHT22;31430;61.646;24.704;2023-04-24T02:15:11;8.30;97.70
45715;DHT22;31430;61.646;24.704;2023-04-24T02:17:37;8.30;97.40
45715;DHT22;31430;61.646;24.704;2023-04-24T02:20:04;8.40;96.90
45715;DHT22;31430;61.646;24.704;2023-04-24T02:22:30;8.40;97.20
45715;DHT22;31430;61.646;24.704;2023-04-24T02:24:55;8.40;96.80
45715;DHT22;31430;61.646;24.704;2023-04-24T02:27:21;8.40;96.60
45715;DHT22;31430;61.646;24.704;2023-04-24T02:29:47;8.40;97.10
45715;DHT22;31430;61.646;24.704;2023-04-24T02:32:12;8.40;96.90
45715;DHT22;31430;61.646;24.704;2023-04-24T02:34:40;8.50;96.50
45715;DHT22;31430;61.646;24.704;2023-04-24T02:37:06;8.70;96.20
45715;DHT22;31430;61.646;24.704;2023-04-24T02:39:32;9.00;95.40
45715;DHT22;31430;61.646;24.704;2023-04-24T02:41:57;8.90;94.80
45715;DHT22;31430;61.646;24.704;2023-04-24T02:44:23;8.90;95.00
45715;DHT22;31430;61.646;24.704;2023-04-24T02:46:49;8.90;94.30
45715;DHT22;31430;61.646;24.704;2023-04-24T02:49:14;8.90;94.90
45715;DHT22;31430;61.646;24.704;2023-04-24T02:51:40;8.90;94.80
45715;DHT22;31430;61.646;24.704;2023-04-24T02:54:07;8.90;94.50
45715;DHT22;31430;61.646;24.704;2023-04-24T02:56:34;9.00;94.40
45715;DHT22;31430;61.646;24.704;2023-04-24T02:59:00;9.20;93.90
45715;DHT22;31430;61.646;24.704;2023-04-24T03:01:25;9.30;93.00
45715;DHT22;31430;61.646;24.704;2023-04-24T03:03:51;9.30;93.30
45715;DHT22;31430;61.646;24.704;2023-04-24T03:06:16;9.40;92.70
45715;DHT22;31430;61.646;24.704;2023-04-24T03:08:42;9.60;92.30
45715;DHT22;31430;61.646;24.704;2023-04-24T03:11:08;9.60;91.60
45715;DHT22;31430;61.646;24.704;2023-04-24T03:13:33;9.80;91.90
45715;DHT22;31430;61.646;24.704;2023-04-24T03:15:59;9.70;93.30
45715;DHT22;31430;61.646;24.704;2023-04-24T03:18:24;9.70;93.40
45715;DHT22;31430;61.646;24.704;2023-04-24T03:20:50;9.60;93.80
45715;DHT22;31430;61.646;24.704;2023-04-24T03:23:16;9.60;94.00
45715;DHT22;31430;61.646;24.704;2023-04-24T03:25:42;9.70;94.10
45715;DHT22;31430;61.646;24.704;2023-04-24T03:28:08;9.70;93.70
45715;DHT22;31430;61.646;24.704;2023-04-24T03:30:34;9.80;93.80
45715;DHT22;31430;61.646;24.704;2023-04-24T03:33:00;9.80;94.10
45715;DHT22;31430;61.646;24.704;2023-04-24T03:35:25;9.90;94.30
45715;DHT22;31430;61.646;24.704;2023-04-24T03:37:51;9.90;94.50
45715;DHT22;31430;61.646;24.704;2023-04-24T03:40:17;9.90;93.80
45715;DHT22;31430;61.646;24.704;2023-04-24T03:42:42;9.90;93.60
45715;DHT22;31430;61.646;24.704;2023-04-24T03:45:09;10.00;93.80
45715;DHT22;31430;61.646;24.704;2023-04-24T03:47:34;10.00;94.20
45715;DHT22;31430;61.646;24.704;2023-04-24T03:50:01;9.90;95.70
45715;DHT22;31430;61.646;24.704;2023-04-24T03:52:26;9.80;97.60
45715;DHT22;31430;61.646;24.704;2023-04-24T03:54:52;9.80;97.50
45715;DHT22;31430;61.646;24.704;2023-04-24T03:57:18;9.80;97.80
45715;DHT22;31430;61.646;24.704;2023-04-24T03:59:43;9.90;98.10
45715;DHT22;31430;61.646;24.704;2023-04-24T04:02:09;9.80;99.20
45715;DHT22;31430;61.646;24.704;2023-04-24T04:04:35;9.70;99.90
45715;DHT22;31430;61.646;24.704;2023-04-24T04:07:01;9.90;99.90
45715;DHT22;31430;61.646;24.704;2023-04-24T04:09:28;9.80;99.90
45715;DHT22;31430;61.646;24.704;2023-04-24T04:11:54;9.80;99.90
45715;DHT22;31430;61.646;24.704;2023-04-24T04:14:21;9.90;99.90
45715;DHT22;31430;61.646;24.704;2023-04-24T04:16:46;10.00;99.90
45715;DHT22;31430;61.646;24.704;2023-04-24T04:19:12;10.00;99.90
45715;DHT22;31430;61.646;24.704;2023-04-24T04:21:37;10.00;99.90
45715;DHT22;31430;61.646;24.704;2023-04-24T04:24:03;10.10;99.90
45715;DHT22;31430;61.646;24.704;2023-04-24T04:26:31;10.00;99.90
45715;DHT22;31430;61.646;24.704;2023-04-24T04:28:58;9.90;99.90
45715;DHT22;31430;61.646;24.704;2023-04-24T04:31:26;10.00;99.90
45715;DHT22;31430;61.646;24.704;2023-04-24T04:33:51;10.00;99.90
45715;DHT22;31430;61.646;24.704;2023-04-24T04:36:17;9.90;99.90
45715;DHT22;31430;61.646;24.704;2023-04-24T04:38:43;10.00;99.90
45715;DHT22;31430;61.646;24.704;2023-04-24T04:41:10;10.10;99.90
45715;DHT22;31430;61.646;24.704;2023-04-24T04:43:36;10.20;99.90
45715;DHT22;31430;61.646;24.704;2023-04-24T04:46:02;10.10;99.90
45715;DHT22;31430;61.646;24.704;2023-04-24T04:48:28;9.90;99.90
45715;DHT22;31430;61.646;24.704;2023-04-24T04:50:57;9.80;99.90
45715;DHT22;31430;61.646;24.704;2023-04-24T04:53:22;9.60;99.90
45715;DHT22;31430;61.646;24.704;2023-04-24T04:55:48;9.50;99.90
45715;DHT22;31430;61.646;24.704;2023-04-24T04:58:14;9.50;99.90
45715;DHT22;31430;61.646;24.704;2023-04-24T05:00:39;9.50;99.90
45715;DHT22;31430;61.646;24.704;2023-04-24T05:03:06;9.60;99.90
45715;DHT22;31430;61.646;24.704;2023-04-24T05:05:32;9.60;99.90
45715;DHT22;31430;61.646;24.704;2023-04-24T05:07:58;9.70;99.90
45715;DHT22;31430;61.646;24.704;2023-04-24T05:10:23;9.60;99.90
45715;DHT22;31430;61.646;24.704;2023-04-24T05:12:49;9.50;99.90
45715;DHT22;31430;61.646;24.704;2023-04-24T05:15:15;9.40;99.90
45715;DHT22;31430;61.646;24.704;2023-04-24T05:17:40;9.30;99.90
45715;DHT22;31430;61.646;24.704;2023-04-24T05:20:07;9.10;99.90
45715;DHT22;31430;61.646;24.704;2023-04-24T05:22:32;9.20;99.90
45715;DHT22;31430;61.646;24.704;2023-04-24T05:24:58;9.10;99.90
45715;DHT22;31430;61.646;24.704;2023-04-24T05:27:24;9.00;99.90
45715;DHT22;31430;61.646;24.704;2023-04-24T05:29:50;8.80;99.90
45715;DHT22;31430;61.646;24.704;2023-04-24T05:32:16;8.70;99.90
45715;DHT22;31430;61.646;24.704;2023-04-24T05:34:42;8.70;99.90
45715;DHT22;31430;61.646;24.704;2023-04-24T05:37:07;8.70;99.90
45715;DHT22;31430;61.646;24.704;2023-04-24T05:39:35;8.70;99.90
45715;DHT22;31430;61.646;24.704;2023-04-24T05:42:01;8.80;99.90
45715;DHT22;31430;61.646;24.704;2023-04-24T05:44:27;8.70;99.90
45715;DHT22;31430;61.646;24.704;2023-04-24T05:46:53;8.60;99.90
45715;DHT22;31430;61.646;24.704;2023-04-24T05:49:20;8.40;99.90
45715;DHT22;31430;61.646;24.704;2023-04-24T05:51:46;8.30;99.90
45715;DHT22;31430;61.646;24.704;2023-04-24T05:54:11;8.30;99.90
45715;DHT22;31430;61.646;24.704;2023-04-24T05:56:38;8.20;99.90
45715;DHT22;31430;61.646;24.704;2023-04-24T05:59:03;8.20;99.90
45715;DHT22;31430;61.646;24.704;2023-04-24T06:01:29;8.10;99.90
45715;DHT22;31430;61.646;24.704;2023-04-24T06:03:55;8.10;99.90
45715;DHT22;31430;61.646;24.704;2023-04-24T06:06:20;8.10;99.90
45715;DHT22;31430;61.646;24.704;2023-04-24T06:08:46;8.00;99.90
45715;DHT22;31430;61.646;24.704;2023-04-24T06:11:12;8.00;99.90
45715;DHT22;31430;61.646;24.704;2023-04-24T06:13:37;7.90;99.90
45715;DHT22;31430;61.646;24.704;2023-04-24T06:16:04;7.80;99.90
45715;DHT22;31430;61.646;24.704;2023-04-24T06:18:29;7.80;99.90
45715;DHT22;31430;61.646;24.704;2023-04-24T06:20:55;7.80;99.90
45715;DHT22;31430;61.646;24.704;2023-04-24T06:23:21;7.80;99.90
45715;DHT22;31430;61.646;24.704;2023-04-24T06:25:47;7.90;99.90
45715;DHT22;31430;61.646;24.704;2023-04-24T06:28:13;7.80;99.90
45715;DHT22;31430;61.646;24.704;2023-04-24T06:30:38;7.90;99.90
45715;DHT22;31430;61.646;24.704;2023-04-24T06:33:04;7.80;99.90
45715;DHT22;31430;61.646;24.704;2023-04-24T06:35:29;7.80;99.90
45715;DHT22;31430;61.646;24.704;2023-04-24T06:37:55;7.80;99.90
45715;DHT22;31430;61.646;24.704;2023-04-24T06:40:21;8.00;99.90
45715;DHT22;31430;61.646;24.704;2023-04-24T06:42:47;8.10;99.90
45715;DHT22;31430;61.646;24.704;2023-04-24T06:45:12;8.10;99.90
45715;DHT22;31430;61.646;24.704;2023-04-24T06:47:38;8.10;99.90
45715;DHT22;31430;61.646;24.704;2023-04-24T06:50:04;8.10;99.90
45715;DHT22;31430;61.646;24.704;2023-04-24T06:52:30;8.30;99.90
45715;DHT22;31430;61.646;24.704;2023-04-24T06:55:04;8.40;99.90
45715;DHT22;31430;61.646;24.704;2023-04-24T06:57:30;8.50;99.90
45715;DHT22;31430;61.646;24.704;2023-04-24T06:59:56;8.60;99.90
45715;DHT22;31430;61.646;24.704;2023-04-24T07:02:22;8.70;99.90
45715;DHT22;31430;61.646;24.704;2023-04-24T07:04:48;8.40;99.90
45715;DHT22;31430;61.646;24.704;2023-04-24T07:07:13;8.50;99.90
45715;DHT22;31430;61.646;24.704;2023-04-24T07:09:40;8.40;99.90
45715;DHT22;31430;61.646;24.704;2023-04-24T07:12:10;8.50;99.90
45715;DHT22;31430;61.646;24.704;2023-04-24T07:14:37;8.80;99.90
45715;DHT22;31430;61.646;24.704;2023-04-24T07:17:04;8.70;99.90
45715;DHT22;31430;61.646;24.704;2023-04-24T07:19:30;8.70;99.90
45715;DHT22;31430;61.646;24.704;2023-04-24T07:21:55;8.70;99.90
45715;DHT22;31430;61.646;24.704;2023-04-24T07:24:24;8.60;99.90
45715;DHT22;31430;61.646;24.704;2023-04-24T07:26:51;8.80;99.90
45715;DHT22;31430;61.646;24.704;2023-04-24T07:29:17;8.90;99.90
45715;DHT22;31430;61.646;24.704;2023-04-24T07:31:43;8.90;99.90
45715;DHT22;31430;61.646;24.704;2023-04-24T07:34:09;9.00;99.90
45715;DHT22;31430;61.646;24.704;2023-04-24T07:36:35;8.80;99.90
45715;DHT22;31430;61.646;24.704;2023-04-24T07:39:00;8.80;99.90
45715;DHT22;31430;61.646;24.704;2023-04-24T07:41:26;8.80;99.90
45715;DHT22;31430;61.646;24.704;2023-04-24T07:43:53;8.80;99.90
45715;DHT22;31430;61.646;24.704;2023-04-24T07:46:19;8.80;99.90
45715;DHT22;31430;61.646;24.704;2023-04-24T07:48:45;8.80;99.90
45715;DHT22;31430;61.646;24.704;2023-04-24T07:51:14;8.60;99.90
45715;DHT22;31430;61.646;24.704;2023-04-24T07:53:40;8.60;99.90
45715;DHT22;31430;61.646;24.704;2023-04-24T07:56:05;8.60;99.90
45715;DHT22;31430;61.646;24.704;2023-04-24T07:58:31;8.50;99.90
45715;DHT22;31430;61.646;24.704;2023-04-24T08:00:57;8.40;99.90
45715;DHT22;31430;61.646;24.704;2023-04-24T08:03:22;8.40;99.90
45715;DHT22;31430;61.646;24.704;2023-04-24T08:05:49;8.30;99.90
45715;DHT22;31430;61.646;24.704;2023-04-24T08:08:16;8.20;99.90
45715;DHT22;31430;61.646;24.704;2023-04-24T08:10:42;8.20;99.90
45715;DHT22;31430;61.646;24.704;2023-04-24T08:13:08;8.10;99.90
45715;DHT22;31430;61.646;24.704;2023-04-24T08:15:34;8.10;99.90
45715;DHT22;31430;61.646;24.704;2023-04-24T08:17:59;8.20;99.90
45715;DHT22;31430;61.646;24.704;2023-04-24T08:20:25;8.10;99.90
45715;DHT22;31430;61.646;24.704;2023-04-24T08:22:51;8.10;99.90
45715;DHT22;31430;61.646;24.704;2023-04-24T08:25:17;7.90;99.90
45715;DHT22;31430;61.646;24.704;2023-04-24T08:27:43;7.90;99.90
45715;DHT22;31430;61.646;24.704;2023-04-24T08:30:09;7.90;99.90
45715;DHT22;31430;61.646;24.704;2023-04-24T08:32:36;7.90;99.90
45715;DHT22;31430;61.646;24.704;2023-04-24T08:35:01;8.00;99.90
45715;DHT22;31430;61.646;24.704;2023-04-24T08:37:27;7.80;99.90
45715;DHT22;31430;61.646;24.704;2023-04-24T08:39:53;7.90;99.90
45715;DHT22;31430;61.646;24.704;2023-04-24T08:42:19;7.80;99.90
45715;DHT22;31430;61.646;24.704;2023-04-24T08:44:45;7.60;99.90
45715;DHT22;31430;61.646;24.704;2023-04-24T08:47:12;7.70;99.90
45715;DHT22;31430;61.646;24.704;2023-04-24T08:49:38;7.70;99.90
45715;DHT22;31430;61.646;24.704;2023-04-24T08:52:05;7.70;99.90
45715;DHT22;31430;61.646;24.704;2023-04-24T08:54:32;7.70;99.90
45715;DHT22;31430;61.646;24.704;2023-04-24T08:57:00;7.80;99.90
45715;DHT22;31430;61.646;24.704;2023-04-24T08:59:33;7.70;99.90
45715;DHT22;31430;61.646;24.704;2023-04-24T09:02:01;7.90;99.90
45715;DHT22;31430;61.646;24.704;2023-04-24T09:04:29;7.90;99.90
45715;DHT22;31430;61.646;24.704;2023-04-24T09:06:56;7.90;99.90
45715;DHT22;31430;61.646;24.704;2023-04-24T09:09:23;8.00;99.90
45715;DHT22;31430;61.646;24.704;2023-04-24T09:11:50;8.10;99.90
45715;DHT22;31430;61.646;24.704;2023-04-24T09:14:19;8.10;99.90
45715;DHT22;31430;61.646;24.704;2023-04-24T09:16:45;8.20;99.90
45715;DHT22;31430;61.646;24.704;2023-04-24T09:19:11;8.30;99.90
45715;DHT22;31430;61.646;24.704;2023-04-24T09:21:37;8.20;99.90
45715;DHT22;31430;61.646;24.704;2023-04-24T09:24:08;8.20;99.90
45715;DHT22;31430;61.646;24.704;2023-04-24T09:26:39;8.20;99.90
45715;DHT22;31430;61.646;24.704;2023-04-24T09:29:05;8.20;99.90
45715;DHT22;31430;61.646;24.704;2023-04-24T09:31:31;8.40;99.90
45715;DHT22;31430;61.646;24.704;2023-04-24T09:33:59;8.30;99.90
45715;DHT22;31430;61.646;24.704;2023-04-24T09:36:33;8.30;99.90
45715;DHT22;31430;61.646;24.704;2023-04-24T09:39:00;8.30;99.90
45715;DHT22;31430;61.646;24.704;2023-04-24T09:41:27;8.40;99.90
45715;DHT22;31430;61.646;24.704;2023-04-24T09:43:55;8.70;99.90
45715;DHT22;31430;61.646;24.704;2023-04-24T09:46:21;8.70;99.90
45715;DHT22;31430;61.646;24.704;2023-04-24T09:48:47;8.70;99.90
45715;DHT22;31430;61.646;24.704;2023-04-24T09:51:13;8.70;99.90
45715;DHT22;31430;61.646;24.704;2023-04-24T09:53:45;8.80;99.90
45715;DHT22;31430;61.646;24.704;2023-04-24T09:56:12;8.90;99.90
45715;DHT22;31430;61.646;24.704;2023-04-24T09:58:40;8.80;99.90
45715;DHT22;31430;61.646;24.704;2023-04-24T10:01:06;8.80;99.90
45715;DHT22;31430;61.646;24.704;2023-04-24T10:03:35;8.80;99.90
45715;DHT22;31430;61.646;24.704;2023-04-24T10:06:03;8.90;99.90
45715;DHT22;31430;61.646;24.704;2023-04-24T10:08:34;9.00;99.90
45715;DHT22;31430;61.646;24.704;2023-04-24T10:11:01;9.10;99.90
45715;DHT22;31430;61.646;24.704;2023-04-24T10:13:27;9.10;99.90
45715;DHT22;31430;61.646;24.704;2023-04-24T10:15:54;9.10;99.90
45715;DHT22;31430;61.646;24.704;2023-04-24T10:18:21;9.00;99.90
45715;DHT22;31430;61.646;24.704;2023-04-24T10:20:48;8.80;99.90
45715;DHT22;31430;61.646;24.704;2023-04-24T10:23:14;8.90;99.90
45715;DHT22;31430;61.646;24.704;2023-04-24T10:25:40;8.90;99.90
45715;DHT22;31430;61.646;24.704;2023-04-24T10:28:06;9.00;99.90
45715;DHT22;31430;61.646;24.704;2023-04-24T10:30:33;9.00;99.90
45715;DHT22;31430;61.646;24.704;2023-04-24T10:33:01;9.10;99.90
45715;DHT22;31430;61.646;24.704;2023-04-24T10:35:30;9.20;99.90
45715;DHT22;31430;61.646;24.704;2023-04-24T10:38:03;9.30;99.90
45715;DHT22;31430;61.646;24.704;2023-04-24T10:40:32;9.30;99.90
45715;DHT22;31430;61.646;24.704;2023-04-24T10:43:01;9.30;99.90
45715;DHT22;31430;61.646;24.704;2023-04-24T10:45:27;9.40;99.90
45715;DHT22;31430;61.646;24.704;2023-04-24T10:50:34;9.40;99.90
45715;DHT22;31430;61.646;24.704;2023-04-24T10:53:11;9.30;99.90
45715;DHT22;31430;61.646;24.704;2023-04-24T10:58:12;9.30;99.90
45715;DHT22;31430;61.646;24.704;2023-04-24T11:00:39;9.30;99.90
45715;DHT22;31430;61.646;24.704;2023-04-24T11:16:35;9.40;99.90
45715;DHT22;31430;61.646;24.704;2023-04-24T11:21:46;9.80;99.90
45715;DHT22;31430;61.646;24.704;2023-04-24T11:26:50;9.90;98.20
45715;DHT22;31430;61.646;24.704;2023-04-24T11:29:16;9.80;99.90
45715;DHT22;31430;61.646;24.704;2023-04-24T11:31:45;9.50;99.90
45715;DHT22;31430;61.646;24.704;2023-04-24T11:34:16;9.40;99.90
45715;DHT22;31430;61.646;24.704;2023-04-24T11:36:45;9.10;99.90
45715;DHT22;31430;61.646;24.704;2023-04-24T11:39:12;9.20;99.90
45715;DHT22;31430;61.646;24.704;2023-04-24T11:41:38;9.30;99.90
45715;DHT22;31430;61.646;24.704;2023-04-24T11:44:06;9.30;99.90
45715;DHT22;31430;61.646;24.704;2023-04-24T11:46:32;9.60;99.90
45715;DHT22;31430;61.646;24.704;2023-04-24T11:48:59;9.70;99.90
45715;DHT22;31430;61.646;24.704;2023-04-24T11:51:26;9.90;98.30
45715;DHT22;31430;61.646;24.704;2023-04-24T11:53:56;10.00;98.00
45715;DHT22;31430;61.646;24.704;2023-04-24T11:56:23;10.30;97.60
45715;DHT22;31430;61.646;24.704;2023-04-24T11:58:52;10.10;96.00
45715;DHT22;31430;61.646;24.704;2023-04-24T12:01:18;9.90;96.60
45715;DHT22;31430;61.646;24.704;2023-04-24T12:03:48;9.70;97.30
45715;DHT22;31430;61.646;24.704;2023-04-24T12:06:14;9.60;99.90
45715;DHT22;31430;61.646;24.704;2023-04-24T12:08:39;9.70;99.20
45715;DHT22;31430;61.646;24.704;2023-04-24T12:11:07;10.10;97.00
45715;DHT22;31430;61.646;24.704;2023-04-24T12:13:33;10.30;96.40
45715;DHT22;31430;61.646;24.704;2023-04-24T12:16:02;10.50;94.50
45715;DHT22;31430;61.646;24.704;2023-04-24T12:18:28;10.50;92.50
45715;DHT22;31430;61.646;24.704;2023-04-24T12:20:54;10.30;93.20
45715;DHT22;31430;61.646;24.704;2023-04-24T12:23:35;10.50;93.60
45715;DHT22;31430;61.646;24.704;2023-04-24T12:26:03;10.50;94.50
45715;DHT22;31430;61.646;24.704;2023-04-24T12:28:38;10.60;93.70
45715;DHT22;31430;61.646;24.704;2023-04-24T12:31:04;10.40;93.40
45715;DHT22;31430;61.646;24.704;2023-04-24T12:33:35;10.30;92.20
45715;DHT22;31430;61.646;24.704;2023-04-24T12:36:01;10.50;92.70
45715;DHT22;31430;61.646;24.704;2023-04-24T12:38:28;10.80;91.80
45715;DHT22;31430;61.646;24.704;2023-04-24T12:41:10;10.90;92.10
45715;DHT22;31430;61.646;24.704;2023-04-24T12:43:36;11.70;90.20
45715;DHT22;31430;61.646;24.704;2023-04-24T12:46:02;11.70;87.60
45715;DHT22;31430;61.646;24.704;2023-04-24T12:48:28;11.30;85.70
45715;DHT22;31430;61.646;24.704;2023-04-24T12:50:54;11.20;87.00
45715;DHT22;31430;61.646;24.704;2023-04-24T12:53:22;10.90;88.20
45715;DHT22;31430;61.646;24.704;2023-04-24T12:55:47;11.30;85.40
45715;DHT22;31430;61.646;24.704;2023-04-24T12:58:20;11.00;86.20
45715;DHT22;31430;61.646;24.704;2023-04-24T13:00:46;10.70;89.80
45715;DHT22;31430;61.646;24.704;2023-04-24T13:03:12;10.60;88.60
45715;DHT22;31430;61.646;24.704;2023-04-24T13:05:38;10.40;88.30
45715;DHT22;31430;61.646;24.704;2023-04-24T13:08:03;10.40;90.30
45715;DHT22;31430;61.646;24.704;2023-04-24T13:10:30;10.60;90.30
45715;DHT22;31430;61.646;24.704;2023-04-24T13:12:55;10.90;88.70
45715;DHT22;31430;61.646;24.704;2023-04-24T13:15:21;10.70;88.80
45715;DHT22;31430;61.646;24.704;2023-04-24T13:17:47;10.70;87.60
45715;DHT22;31430;61.646;24.704;2023-04-24T13:20:13;10.80;88.20
45715;DHT22;31430;61.646;24.704;2023-04-24T13:22:38;11.00;88.30
45715;DHT22;31430;61.646;24.704;2023-04-24T13:25:05;11.40;88.40
45715;DHT22;31430;61.646;24.704;2023-04-24T13:27:31;10.80;84.90
45715;DHT22;31430;61.646;24.704;2023-04-24T13:29:58;10.30;87.60
45715;DHT22;31430;61.646;24.704;2023-04-24T13:32:23;9.90;89.30
45715;DHT22;31430;61.646;24.704;2023-04-24T13:34:49;10.30;90.40
45715;DHT22;31430;61.646;24.704;2023-04-24T13:37:15;10.10;89.20
45715;DHT22;31430;61.646;24.704;2023-04-24T13:39:40;10.30;90.50
45715;DHT22;31430;61.646;24.704;2023-04-24T13:42:09;10.70;85.30
45715;DHT22;31430;61.646;24.704;2023-04-24T13:44:35;10.90;86.60
45715;DHT22;31430;61.646;24.704;2023-04-24T13:47:01;11.20;84.30
45715;DHT22;31430;61.646;24.704;2023-04-24T13:49:27;11.50;81.70
45715;DHT22;31430;61.646;24.704;2023-04-24T13:51:53;11.50;82.20
45715;DHT22;31430;61.646;24.704;2023-04-24T13:54:19;11.70;81.70
45715;DHT22;31430;61.646;24.704;2023-04-24T13:56:45;11.20;81.40
45715;DHT22;31430;61.646;24.704;2023-04-24T13:59:12;11.00;83.50
45715;DHT22;31430;61.646;24.704;2023-04-24T14:01:38;11.00;82.10
45715;DHT22;31430;61.646;24.704;2023-04-24T14:04:04;11.10;80.60
45715;DHT22;31430;61.646;24.704;2023-04-24T14:06:30;10.90;82.00
45715;DHT22;31430;61.646;24.704;2023-04-24T14:08:56;11.00;81.00
45715;DHT22;31430;61.646;24.704;2023-04-24T14:11:22;10.70;82.50
45715;DHT22;31430;61.646;24.704;2023-04-24T14:13:48;10.70;84.30
45715;DHT22;31430;61.646;24.704;2023-04-24T14:16:14;10.80;81.00
45715;DHT22;31430;61.646;24.704;2023-04-24T14:18:40;11.00;80.80
45715;DHT22;31430;61.646;24.704;2023-04-24T14:21:05;10.80;81.70
45715;DHT22;31430;61.646;24.704;2023-04-24T14:23:31;10.70;81.60
45715;DHT22;31430;61.646;24.704;2023-04-24T14:25:58;10.60;82.80
45715;DHT22;31430;61.646;24.704;2023-04-24T14:28:24;10.40;86.80
45715;DHT22;31430;61.646;24.704;2023-04-24T14:30:50;10.50;85.50
45715;DHT22;31430;61.646;24.704;2023-04-24T14:33:16;10.70;83.90
45715;DHT22;31430;61.646;24.704;2023-04-24T14:35:42;10.50;87.00
45715;DHT22;31430;61.646;24.704;2023-04-24T14:38:08;10.60;83.00
45715;DHT22;31430;61.646;24.704;2023-04-24T14:40:34;10.70;82.80
45715;DHT22;31430;61.646;24.704;2023-04-24T14:43:00;10.60;83.90
45715;DHT22;31430;61.646;24.704;2023-04-24T14:45:26;10.50;83.40
45715;DHT22;31430;61.646;24.704;2023-04-24T14:47:53;10.40;83.30
45715;DHT22;31430;61.646;24.704;2023-04-24T14:50:19;10.10;85.50
45715;DHT22;31430;61.646;24.704;2023-04-24T14:52:44;10.30;85.20
45715;DHT22;31430;61.646;24.704;2023-04-24T14:55:10;10.60;86.50
45715;DHT22;31430;61.646;24.704;2023-04-24T14:57:36;10.80;86.10
45715;DHT22;31430;61.646;24.704;2023-04-24T15:00:08;10.90;81.20
45715;DHT22;31430;61.646;24.704;2023-04-24T15:02:35;11.20;80.00
45715;DHT22;31430;61.646;24.704;2023-04-24T15:05:05;11.20;80.50
45715;DHT22;31430;61.646;24.704;2023-04-24T15:07:31;11.00;81.00
45715;DHT22;31430;61.646;24.704;2023-04-24T15:09:58;11.40;79.20
45715;DHT22;31430;61.646;24.704;2023-04-24T15:12:24;11.40;78.40
45715;DHT22;31430;61.646;24.704;2023-04-24T15:14:50;11.10;79.30
45715;DHT22;31430;61.646;24.704;2023-04-24T15:17:15;10.90;81.70
45715;DHT22;31430;61.646;24.704;2023-04-24T15:19:41;10.40;83.30
45715;DHT22;31430;61.646;24.704;2023-04-24T15:22:07;10.00;84.50
45715;DHT22;31430;61.646;24.704;2023-04-24T15:24:32;9.80;85.20
45715;DHT22;31430;61.646;24.704;2023-04-24T15:26:59;9.30;88.10
45715;DHT22;31430;61.646;24.704;2023-04-24T15:29:25;9.50;88.00
45715;DHT22;31430;61.646;24.704;2023-04-24T15:31:51;9.60;87.00
45715;DHT22;31430;61.646;24.704;2023-04-24T15:34:17;9.80;86.90
45715;DHT22;31430;61.646;24.704;2023-04-24T15:36:42;9.90;85.30
45715;DHT22;31430;61.646;24.704;2023-04-24T15:39:08;9.80;85.20
45715;DHT22;31430;61.646;24.704;2023-04-24T15:41:35;9.70;86.50
45715;DHT22;31430;61.646;24.704;2023-04-24T15:44:01;9.60;87.90
45715;DHT22;31430;61.646;24.704;2023-04-24T15:46:26;9.60;86.50
45715;DHT22;31430;61.646;24.704;2023-04-24T15:48:53;9.50;87.60
45715;DHT22;31430;61.646;24.704;2023-04-24T15:51:18;9.70;87.10
45715;DHT22;31430;61.646;24.704;2023-04-24T15:53:44;9.70;87.40
45715;DHT22;31430;61.646;24.704;2023-04-24T15:56:11;9.50;87.60
45715;DHT22;31430;61.646;24.704;2023-04-24T15:58:37;9.30;89.70
45715;DHT22;31430;61.646;24.704;2023-04-24T16:01:03;9.20;89.00